Time;durP1;ratioP1;P1;durP2;ratioP2;P2;SDS_P1;SDS_P2;PMS_P1;PMS_P2;Temp;Humidity;BMP_temperature;BMP_pressure;BME280_temperature;BME280_humidity;BME280_pressure;Samples;Min_cycle;Max_cycle;Signal;HPM_P1;HPM_P2
2021/06/14 00:01:26;;;;;;;9.27;6.90;;;;;;;;;;5072699;28;20388;-85
2021/06/14 00:03:52;;;;;;;11.13;7.22;;;;;;;;;;5072422;28;20406;-83
2021/06/14 00:06:18;;;;;;;10.45;7.00;;;;;;;;;;5072726;28;20808;-85
2021/06/14 00:08:44;;;;;;;10.40;7.53;;;;;;;;;;5090500;28;20372;-86
2021/06/14 00:11:11;;;;;;;10.20;7.53;;;;;;;;;;5072248;28;20402;-85
2021/06/14 00:13:37;;;;;;;11.32;8.10;;;;;;;;;;5072175;28;20886;-85
2021/06/14 00:16:05;;;;;;;10.48;7.28;;;;;;;;;;5090652;28;20467;-86
2021/06/14 00:18:32;;;;;;;12.07;7.30;;;;;;;;;;5072122;28;20353;-86
2021/06/14 00:21:00;;;;;;;11.35;8.07;;;;;;;;;;5090525;28;20376;-85
2021/06/14 00:23:27;;;;;;;11.07;7.50;;;;;;;;;;5090233;28;20383;-84
2021/06/14 00:25:53;;;;;;;9.82;7.20;;;;;;;;;;5090148;28;20700;-84
2021/06/14 00:28:19;;;;;;;9.23;6.82;;;;;;;;;;5090105;28;20398;-87
2021/06/14 00:30:46;;;;;;;11.07;7.30;;;;;;;;;;5071899;28;20438;-86
2021/06/14 00:33:13;;;;;;;11.50;7.43;;;;;;;;;;5089753;28;20412;-86
2021/06/14 00:35:39;;;;;;;10.35;7.40;;;;;;;;;;5072297;28;20372;-86
2021/06/14 00:38:06;;;;;;;10.48;6.65;;;;;;;;;;5090272;28;20422;-85
2021/06/14 00:40:32;;;;;;;12.80;7.53;;;;;;;;;;5071811;28;20391;-84
2021/06/14 00:42:59;;;;;;;11.93;7.68;;;;;;;;;;5089958;28;20390;-83
2021/06/14 00:45:29;;;;;;;12.07;7.53;;;;;;;;;;5090243;28;20372;-84
2021/06/14 00:47:55;;;;;;;10.80;6.93;;;;;;;;;;5090123;28;20402;-83
2021/06/14 00:50:32;;;;;;;14.18;8.48;;;;;;;;;;5071704;28;20750;-84
2021/06/14 00:52:58;;;;;;;11.73;7.75;;;;;;;;;;5071505;28;20400;-83
2021/06/14 00:55:24;;;;;;;11.85;8.30;;;;;;;;;;5089673;28;20368;-85
2021/06/14 00:57:50;;;;;;;12.00;8.07;;;;;;;;;;5089896;28;20433;-83
2021/06/14 01:00:16;;;;;;;13.10;8.25;;;;;;;;;;5071766;28;20858;-84
2021/06/14 01:02:42;;;;;;;8.25;6.95;;;;;;;;;;5089832;28;20380;-83
2021/06/14 01:05:10;;;;;;;10.23;7.65;;;;;;;;;;5071261;28;20396;-85
2021/06/14 01:07:37;;;;;;;8.43;7.37;;;;;;;;;;5089620;28;20456;-84
2021/06/14 01:10:04;;;;;;;11.53;7.40;;;;;;;;;;5089458;28;20357;-85
2021/06/14 01:12:33;;;;;;;10.40;7.43;;;;;;;;;;5089345;28;20731;-85
2021/06/14 01:15:06;;;;;;;11.75;7.90;;;;;;;;;;5089586;28;20463;-87
2021/06/14 01:17:35;;;;;;;11.95;8.25;;;;;;;;;;5089615;28;20908;-84
2021/06/14 01:20:20;;;;;;;11.07;7.90;;;;;;;;;;5089681;28;20365;-87
2021/06/14 01:22:52;;;;;;;11.18;7.50;;;;;;;;;;5089158;28;20486;-83
2021/06/14 01:25:18;;;;;;;10.68;7.57;;;;;;;;;;5089278;28;20373;-85
2021/06/14 01:27:46;;;;;;;12.77;8.10;;;;;;;;;;5071556;28;20467;-84
2021/06/14 01:30:15;;;;;;;12.27;7.88;;;;;;;;;;5071241;28;20431;-86
2021/06/14 01:32:41;;;;;;;9.52;7.38;;;;;;;;;;5089413;28;20742;-85
2021/06/14 01:35:09;;;;;;;11.35;7.53;;;;;;;;;;5071135;28;20839;-86
2021/06/14 01:37:40;;;;;;;10.25;6.97;;;;;;;;;;5089317;28;20762;-88
2021/06/14 01:40:06;;;;;;;11.57;7.20;;;;;;;;;;5071200;28;20390;-83
2021/06/14 01:42:33;;;;;;;9.93;7.28;;;;;;;;;;5070883;28;20387;-87
2021/06/14 01:45:00;;;;;;;9.25;7.25;;;;;;;;;;5071257;28;20898;-87
2021/06/14 01:47:26;;;;;;;11.50;7.50;;;;;;;;;;5089279;28;20368;-89
2021/06/14 01:49:52;;;;;;;10.55;7.68;;;;;;;;;;5071187;28;20832;-85
2021/06/14 01:52:19;;;;;;;9.75;7.40;;;;;;;;;;5089138;28;20407;-87
2021/06/14 01:54:45;;;;;;;10.52;7.28;;;;;;;;;;5089116;28;20385;-83
2021/06/14 01:57:11;;;;;;;9.80;7.22;;;;;;;;;;5088997;28;20357;-86
2021/06/14 01:59:39;;;;;;;10.82;7.28;;;;;;;;;;5089171;28;20447;-87
2021/06/14 02:02:06;;;;;;;11.10;7.75;;;;;;;;;;5088980;28;20372;-85
2021/06/14 02:04:33;;;;;;;10.10;7.70;;;;;;;;;;5070415;28;20863;-87
2021/06/14 02:06:59;;;;;;;11.45;7.55;;;;;;;;;;5071559;28;20376;-85
2021/06/14 02:09:26;;;;;;;11.73;7.55;;;;;;;;;;5074918;28;20463;-85
2021/06/14 02:11:53;;;;;;;10.38;7.55;;;;;;;;;;5093350;28;20379;-85
2021/06/14 02:14:24;;;;;;;11.18;7.93;;;;;;;;;;5093176;28;20817;-83
2021/06/14 02:16:50;;;;;;;12.77;8.53;;;;;;;;;;5074934;28;20392;-86
2021/06/14 02:19:17;;;;;;;10.93;8.18;;;;;;;;;;5075350;28;20364;-88
2021/06/14 02:21:43;;;;;;;9.67;7.73;;;;;;;;;;5092829;28;20372;-85
2021/06/14 02:24:09;;;;;;;10.07;7.90;;;;;;;;;;5093189;28;20384;-85
2021/06/14 02:26:36;;;;;;;11.18;7.75;;;;;;;;;;5074675;28;20380;-85
2021/06/14 02:29:03;;;;;;;11.77;8.18;;;;;;;;;;5074473;28;20450;-84
2021/06/14 02:31:29;;;;;;;10.23;7.60;;;;;;;;;;5074473;28;20380;-83
2021/06/14 02:33:55;;;;;;;9.55;6.90;;;;;;;;;;5074173;28;20436;-86
2021/06/14 02:36:21;;;;;;;11.50;8.17;;;;;;;;;;5074388;28;20411;-85
2021/06/14 02:38:47;;;;;;;11.20;7.25;;;;;;;;;;5093840;28;20376;-83
2021/06/14 02:41:14;;;;;;;11.10;7.13;;;;;;;;;;5095018;28;20375;-82
2021/06/14 02:43:40;;;;;;;11.30;7.75;;;;;;;;;;5077056;28;20356;-86
2021/06/14 02:46:06;;;;;;;11.52;7.47;;;;;;;;;;5074821;28;20371;-85
2021/06/14 02:48:33;;;;;;;10.55;7.65;;;;;;;;;;5092439;28;20372;-85
2021/06/14 02:51:00;;;;;;;10.48;8.00;;;;;;;;;;5092449;28;20404;-86
2021/06/14 02:53:27;;;;;;;10.75;7.35;;;;;;;;;;5092275;28;20406;-84
2021/06/14 02:55:56;;;;;;;9.63;7.55;;;;;;;;;;5092517;28;20376;-84
2021/06/14 02:58:25;;;;;;;9.60;7.00;;;;;;;;;;5073707;28;20873;-85
2021/06/14 03:00:51;;;;;;;9.70;7.20;;;;;;;;;;5092245;28;20388;-86
2021/06/14 03:03:17;;;;;;;9.37;7.30;;;;;;;;;;5073966;28;20404;-83
2021/06/14 03:05:44;;;;;;;11.38;7.80;;;;;;;;;;5092513;28;20368;-83
2021/06/14 03:08:10;;;;;;;10.25;7.18;;;;;;;;;;5092358;28;21277;-85
2021/06/14 03:10:37;;;;;;;11.45;7.53;;;;;;;;;;5073794;28;20376;-85
2021/06/14 03:13:04;;;;;;;12.73;7.50;;;;;;;;;;5073826;28;20404;-85
2021/06/14 03:15:32;;;;;;;9.80;6.80;;;;;;;;;;5073671;28;20850;-86
2021/06/14 03:17:59;;;;;;;9.43;6.50;;;;;;;;;;5091943;28;20399;-86
2021/06/14 03:20:25;;;;;;;10.90;7.15;;;;;;;;;;5092129;28;20851;-82
2021/06/14 03:22:52;;;;;;;12.73;7.68;;;;;;;;;;5091756;28;20425;-87
2021/06/14 03:25:18;;;;;;;9.85;6.78;;;;;;;;;;5092008;28;20459;-87
2021/06/14 03:27:45;;;;;;;8.63;6.97;;;;;;;;;;5091593;28;20783;-83
2021/06/14 03:30:12;;;;;;;11.63;8.00;;;;;;;;;;5072867;28;21690;-84
2021/06/14 03:32:44;;;;;;;10.15;6.50;;;;;;;;;;5091728;28;20429;-86
2021/06/14 03:35:13;;;;;;;9.48;6.80;;;;;;;;;;5091437;28;20460;-86
2021/06/14 03:37:39;;;;;;;8.65;7.28;;;;;;;;;;5073703;28;20464;-86
2021/06/14 03:40:05;;;;;;;12.02;7.25;;;;;;;;;;5091585;28;20376;-84
2021/06/14 03:42:31;;;;;;;9.90;6.70;;;;;;;;;;5073079;28;20953;-85
2021/06/14 03:44:58;;;;;;;8.68;6.57;;;;;;;;;;5073415;28;20878;-86
2021/06/14 03:47:25;;;;;;;12.48;7.25;;;;;;;;;;5073113;28;20890;-84
2021/06/14 03:49:51;;;;;;;46.58;11.30;;;;;;;;;;5073537;28;20878;-85
2021/06/14 03:52:17;;;;;;;43.53;10.98;;;;;;;;;;5091360;28;20368;-83
2021/06/14 03:54:43;;;;;;;49.45;11.30;;;;;;;;;;5073398;28;20401;-87
2021/06/14 03:57:09;;;;;;;14.85;8.38;;;;;;;;;;5091239;28;20457;-86
2021/06/14 03:59:35;;;;;;;11.52;7.60;;;;;;;;;;5073001;28;20909;-87
2021/06/14 04:02:01;;;;;;;8.75;6.60;;;;;;;;;;5072990;28;20367;-86
2021/06/14 04:06:56;;;;;;;16.08;8.07;;;;;;;;;;5091108;28;20377;-84
2021/06/14 04:09:22;;;;;;;25.95;8.18;;;;;;;;;;5072881;28;20369;-85
2021/06/14 04:11:49;;;;;;;23.42;8.13;;;;;;;;;;5072744;28;20375;-87
2021/06/14 04:14:15;;;;;;;13.20;7.38;;;;;;;;;;5072557;28;20905;-85
2021/06/14 04:16:41;;;;;;;14.98;7.85;;;;;;;;;;5072622;28;20873;-86
2021/06/14 04:19:07;;;;;;;13.00;7.00;;;;;;;;;;5072666;28;20468;-84
2021/06/14 04:21:33;;;;;;;12.05;7.80;;;;;;;;;;5072379;28;21066;-83
2021/06/14 04:23:59;;;;;;;13.90;7.10;;;;;;;;;;5072666;28;20387;-85
2021/06/14 04:26:25;;;;;;;10.60;7.50;;;;;;;;;;5072224;28;20387;-83
2021/06/14 04:28:51;;;;;;;10.67;7.20;;;;;;;;;;5090739;28;20376;-82
2021/06/14 04:31:17;;;;;;;11.70;6.90;;;;;;;;;;5072177;28;20383;-84
2021/06/14 04:33:43;;;;;;;14.35;7.53;;;;;;;;;;5090444;28;20388;-88
2021/06/14 04:36:09;;;;;;;9.57;6.70;;;;;;;;;;5072400;28;20372;-86
2021/06/14 04:38:35;;;;;;;9.80;6.60;;;;;;;;;;5071910;28;20743;-86
2021/06/14 04:41:01;;;;;;;11.20;6.90;;;;;;;;;;5090069;28;20373;-83
2021/06/14 04:43:27;;;;;;;12.63;7.15;;;;;;;;;;5072128;28;20474;-85
2021/06/14 04:45:53;;;;;;;12.85;7.03;;;;;;;;;;5071925;28;20380;-82
2021/06/14 04:48:19;;;;;;;14.68;6.90;;;;;;;;;;5070739;28;20388;-83
2021/06/14 04:50:45;;;;;;;11.75;6.35;;;;;;;;;;5089541;28;20383;-83
2021/06/14 04:53:11;;;;;;;10.02;6.25;;;;;;;;;;5089127;28;20388;-85
2021/06/14 04:55:37;;;;;;;9.45;6.57;;;;;;;;;;5089700;28;20695;-83
2021/06/14 04:58:03;;;;;;;10.60;6.38;;;;;;;;;;5089501;28;20460;-83
2021/06/14 05:00:29;;;;;;;13.25;5.65;;;;;;;;;;5089782;28;20382;-83
2021/06/14 05:02:55;;;;;;;14.48;5.50;;;;;;;;;;5071228;28;20372;-84
2021/06/14 05:05:22;;;;;;;13.77;5.93;;;;;;;;;;5071474;28;20770;-84
2021/06/14 05:07:47;;;;;;;11.85;6.35;;;;;;;;;;5089678;28;20412;-84
2021/06/14 05:10:13;;;;;;;12.60;6.30;;;;;;;;;;5089472;28;20415;-83
2021/06/14 05:12:39;;;;;;;9.93;5.97;;;;;;;;;;5088815;28;20360;-85
2021/06/14 05:15:06;;;;;;;11.47;5.77;;;;;;;;;;5089115;28;20771;-85
2021/06/14 05:17:32;;;;;;;12.60;6.18;;;;;;;;;;5089183;28;20739;-85
2021/06/14 05:19:58;;;;;;;10.23;6.13;;;;;;;;;;5070640;28;20372;-86
2021/06/14 05:22:24;;;;;;;11.07;6.10;;;;;;;;;;5087272;28;20380;-83
2021/06/14 05:24:50;;;;;;;11.05;6.07;;;;;;;;;;5068593;28;20946;-85
2021/06/14 05:27:16;;;;;;;13.77;6.45;;;;;;;;;;5088626;28;20372;-84
2021/06/14 05:29:42;;;;;;;13.60;6.63;;;;;;;;;;5087594;28;20389;-82
2021/06/14 05:32:09;;;;;;;14.02;5.95;;;;;;;;;;5086655;28;20368;-82
2021/06/14 05:34:35;;;;;;;13.48;5.50;;;;;;;;;;5087631;28;20461;-81
2021/06/14 05:37:01;;;;;;;13.75;6.03;;;;;;;;;;5088886;28;20756;-80
2021/06/14 05:39:27;;;;;;;12.88;5.65;;;;;;;;;;5089219;28;20364;-83
2021/06/14 05:41:53;;;;;;;15.30;6.33;;;;;;;;;;5088122;28;20364;-80
2021/06/14 05:44:19;;;;;;;17.02;6.05;;;;;;;;;;5088812;28;20451;-83
2021/06/14 05:46:45;;;;;;;12.57;5.70;;;;;;;;;;5088849;28;20375;-81
2021/06/14 05:49:11;;;;;;;13.77;5.93;;;;;;;;;;5088894;28;20376;-80
2021/06/14 05:51:38;;;;;;;16.53;5.63;;;;;;;;;;5088881;28;20368;-81
2021/06/14 05:54:04;;;;;;;9.65;5.13;;;;;;;;;;5088752;28;20508;-83
2021/06/14 05:56:30;;;;;;;12.10;4.93;;;;;;;;;;5088900;28;20372;-80
2021/06/14 05:58:57;;;;;;;9.17;4.73;;;;;;;;;;5088715;28;20368;-81
2021/06/14 06:01:23;;;;;;;9.40;4.63;;;;;;;;;;5070583;28;20381;-81
2021/06/14 06:03:49;;;;;;;6.68;4.30;;;;;;;;;;5088812;28;20373;-83
2021/06/14 06:06:15;;;;;;;10.30;4.50;;;;;;;;;;5088398;28;20862;-81
2021/06/14 06:08:41;;;;;;;9.00;5.03;;;;;;;;;;5070497;28;20433;-81
2021/06/14 06:11:07;;;;;;;11.32;4.75;;;;;;;;;;5088362;28;20376;-82
2021/06/14 06:13:33;;;;;;;20.55;5.72;;;;;;;;;;5070330;28;20416;-81
2021/06/14 06:15:59;;;;;;;9.05;4.55;;;;;;;;;;5088792;28;21203;-83
2021/06/14 06:18:25;;;;;;;7.20;4.53;;;;;;;;;;5087718;28;20874;-83
2021/06/14 06:20:52;;;;;;;7.70;4.25;;;;;;;;;;5088352;28;20373;-80
2021/06/14 06:23:18;;;;;;;9.40;4.07;;;;;;;;;;5088300;28;20369;-82
2021/06/14 06:25:44;;;;;;;8.70;4.10;;;;;;;;;;5088804;28;20376;-82
2021/06/14 06:28:10;;;;;;;8.32;3.60;;;;;;;;;;5087651;28;20886;-81
2021/06/14 06:30:37;;;;;;;8.95;3.70;;;;;;;;;;5087734;28;20414;-80
2021/06/14 06:33:10;;;;;;;8.07;4.07;;;;;;;;;;5069124;28;20414;-84
2021/06/14 06:35:36;;;;;;;8.60;3.90;;;;;;;;;;5070159;28;20459;-82
2021/06/14 06:38:02;;;;;;;5.70;3.50;;;;;;;;;;5088649;28;21115;-82
2021/06/14 06:40:28;;;;;;;5.75;3.65;;;;;;;;;;5088473;28;20360;-83
2021/06/14 06:42:56;;;;;;;7.50;4.05;;;;;;;;;;5088267;28;20372;-83
2021/06/14 06:45:23;;;;;;;9.18;4.05;;;;;;;;;;5088951;28;20390;-86
2021/06/14 06:47:49;;;;;;;7.67;3.70;;;;;;;;;;5088234;28;20392;-84
2021/06/14 06:50:15;;;;;;;24.52;4.88;;;;;;;;;;5088229;28;20914;-82
2021/06/14 06:52:41;;;;;;;7.90;3.50;;;;;;;;;;5088488;28;20521;-81
2021/06/14 06:55:08;;;;;;;6.50;3.42;;;;;;;;;;5091982;28;20365;-81
2021/06/14 06:57:34;;;;;;;7.32;3.20;;;;;;;;;;5091834;28;20390;-80
2021/06/14 07:00:00;;;;;;;5.72;3.30;;;;;;;;;;5091956;28;20369;-80
2021/06/14 07:02:26;;;;;;;8.43;3.70;;;;;;;;;;5091659;28;20376;-80
2021/06/14 07:04:52;;;;;;;7.43;3.40;;;;;;;;;;5091522;28;20370;-83
2021/06/14 07:07:18;;;;;;;6.72;3.15;;;;;;;;;;5091932;28;20463;-83
2021/06/14 07:09:44;;;;;;;5.72;3.25;;;;;;;;;;5091968;28;20379;-80
2021/06/14 07:12:10;;;;;;;8.27;3.20;;;;;;;;;;5091081;28;20640;-80
2021/06/14 07:14:37;;;;;;;7.50;3.73;;;;;;;;;;5091463;28;20443;-82
2021/06/14 07:17:03;;;;;;;8.20;3.45;;;;;;;;;;5091722;28;20754;-82
2021/06/14 07:19:28;;;;;;;7.93;3.35;;;;;;;;;;5091425;28;20361;-82
2021/06/14 07:21:55;;;;;;;8.65;3.20;;;;;;;;;;5091433;28;20459;-82
2021/06/14 07:24:21;;;;;;;6.70;3.67;;;;;;;;;;5091438;28;20714;-80
2021/06/14 07:26:47;;;;;;;9.30;3.97;;;;;;;;;;5091654;28;20361;-81
2021/06/14 07:29:13;;;;;;;5.38;3.28;;;;;;;;;;5073558;28;20381;-80
2021/06/14 07:31:39;;;;;;;8.27;3.50;;;;;;;;;;5090967;28;20372;-82
2021/06/14 07:34:08;;;;;;;10.18;3.33;;;;;;;;;;5091199;28;20408;-81
2021/06/14 07:36:33;;;;;;;6.47;3.63;;;;;;;;;;5073016;28;20373;-82
2021/06/14 07:38:59;;;;;;;6.82;3.50;;;;;;;;;;5091048;28;20390;-80
2021/06/14 07:41:26;;;;;;;8.10;4.03;;;;;;;;;;5091072;28;20365;-80
2021/06/14 07:43:52;;;;;;;7.20;3.45;;;;;;;;;;5072689;28;20376;-82
2021/06/14 07:46:18;;;;;;;7.70;3.92;;;;;;;;;;5090777;28;20369;-80
2021/06/14 07:48:44;;;;;;;7.63;3.70;;;;;;;;;;5090875;28;20373;-81
2021/06/14 07:51:10;;;;;;;6.43;3.67;;;;;;;;;;5090590;28;20372;-80
2021/06/14 07:53:36;;;;;;;8.13;3.58;;;;;;;;;;5090892;28;20777;-80
2021/06/14 07:56:03;;;;;;;7.05;3.50;;;;;;;;;;5071951;28;20403;-82
2021/06/14 07:58:29;;;;;;;5.55;3.20;;;;;;;;;;5091026;28;20427;-81
2021/06/14 08:00:56;;;;;;;7.95;3.38;;;;;;;;;;5090754;28;20379;-81
2021/06/14 08:03:24;;;;;;;6.60;3.78;;;;;;;;;;5090715;28;20372;-80
2021/06/14 08:05:50;;;;;;;5.63;3.20;;;;;;;;;;5071886;28;20388;-79
2021/06/14 08:08:16;;;;;;;5.85;3.63;;;;;;;;;;5072222;28;20455;-80
2021/06/14 08:10:42;;;;;;;8.85;3.70;;;;;;;;;;5090397;28;20379;-80
2021/06/14 08:13:08;;;;;;;7.45;3.50;;;;;;;;;;5089975;28;20411;-80
2021/06/14 08:15:35;;;;;;;9.17;3.40;;;;;;;;;;5090225;28;20422;-80
2021/06/14 08:21:02;;;;;;;10.27;3.58;;;;;;;;;;5089977;28;20395;-79
2021/06/14 08:26:12;;;;;;;5.63;3.20;;;;;;;;;;5088525;28;20444;-80
2021/06/14 08:28:38;;;;;;;9.35;3.50;;;;;;;;;;5089194;28;20862;-81
2021/06/14 08:31:04;;;;;;;8.07;3.38;;;;;;;;;;5071980;28;20512;-82
2021/06/14 08:33:31;;;;;;;7.07;3.20;;;;;;;;;;5089884;28;20393;-82
2021/06/14 08:35:57;;;;;;;6.40;3.22;;;;;;;;;;5090123;28;21171;-80
2021/06/14 08:38:23;;;;;;;6.85;3.40;;;;;;;;;;5071756;28;20422;-81
2021/06/14 08:40:49;;;;;;;6.63;3.10;;;;;;;;;;5089783;28;20454;-81
2021/06/14 08:43:15;;;;;;;9.80;3.45;;;;;;;;;;5071869;28;20734;-79
2021/06/14 08:45:43;;;;;;;7.47;3.20;;;;;;;;;;5089939;28;20447;-79
2021/06/14 08:48:10;;;;;;;7.40;3.30;;;;;;;;;;5089754;28;20392;-82
2021/06/14 08:50:38;;;;;;;11.68;3.40;;;;;;;;;;5089633;28;20361;-86
2021/06/14 08:53:04;;;;;;;9.05;3.25;;;;;;;;;;5088757;28;20388;-82
2021/06/14 08:55:30;;;;;;;6.55;3.38;;;;;;;;;;5089785;28;20873;-82
2021/06/14 08:57:56;;;;;;;5.15;2.90;;;;;;;;;;5089757;28;20372;-83
2021/06/14 09:00:25;;;;;;;6.72;2.83;;;;;;;;;;5088905;28;21271;-81
2021/06/14 09:02:51;;;;;;;12.73;3.50;;;;;;;;;;5089346;28;20372;-83
2021/06/14 09:05:20;;;;;;;12.80;3.30;;;;;;;;;;5089621;28;20426;-82
2021/06/14 09:07:46;;;;;;;7.45;2.95;;;;;;;;;;5071208;28;20388;-82
2021/06/14 09:10:23;;;;;;;5.78;3.35;;;;;;;;;;5089364;28;20363;-84
2021/06/14 09:12:49;;;;;;;6.05;2.83;;;;;;;;;;5089271;28;20411;-81
2021/06/14 09:15:15;;;;;;;6.40;2.90;;;;;;;;;;5089455;28;20737;-81
2021/06/14 09:17:51;;;;;;;9.17;3.20;;;;;;;;;;5089295;28;20365;-80
2021/06/14 09:20:17;;;;;;;5.85;2.72;;;;;;;;;;5071080;28;20380;-82
2021/06/14 09:22:43;;;;;;;8.77;3.17;;;;;;;;;;5109380;28;20374;-82
2021/06/14 09:25:11;;;;;;;13.85;4.03;;;;;;;;;;5108925;28;20867;-81
2021/06/14 09:27:42;;;;;;;11.52;3.42;;;;;;;;;;5109651;28;20392;-82
2021/06/14 09:30:11;;;;;;;7.47;2.83;;;;;;;;;;5076949;28;20734;-81
2021/06/14 09:32:37;;;;;;;5.40;2.80;;;;;;;;;;5070783;28;20450;-82
2021/06/14 09:35:03;;;;;;;4.22;2.80;;;;;;;;;;5069895;28;20404;-86
2021/06/14 09:37:30;;;;;;;5.75;3.00;;;;;;;;;;5073485;28;20818;-85
2021/06/14 09:39:58;;;;;;;8.20;3.53;;;;;;;;;;5088525;28;20373;-83
2021/06/14 09:42:26;;;;;;;5.80;2.75;;;;;;;;;;5070961;28;20371;-83
2021/06/14 09:44:53;;;;;;;7.33;2.43;;;;;;;;;;5088955;28;20919;-82
2021/06/14 09:47:19;;;;;;;6.97;3.30;;;;;;;;;;5088063;28;20364;-83
2021/06/14 09:50:15;;;;;;;5.80;2.97;;;;;;;;;;5070848;28;20731;-83
2021/06/14 09:52:41;;;;;;;5.70;2.80;;;;;;;;;;5068745;28;20380;-84
2021/06/14 09:55:15;;;;;;;4.30;2.80;;;;;;;;;;5070088;28;20479;-83
2021/06/14 09:57:41;;;;;;;5.20;2.88;;;;;;;;;;5070591;28;20387;-82
2021/06/14 10:00:10;;;;;;;8.27;3.00;;;;;;;;;;5088388;28;20369;-82
2021/06/14 10:02:36;;;;;;;6.93;3.25;;;;;;;;;;5088943;28;20365;-85
2021/06/14 10:05:13;;;;;;;11.05;3.78;;;;;;;;;;5088372;28;20360;-82
2021/06/14 10:07:46;;;;;;;6.40;2.92;;;;;;;;;;5070449;28;20479;-85
2021/06/14 10:10:18;;;;;;;6.90;2.78;;;;;;;;;;5070200;28;20380;-84
2021/06/14 10:12:48;;;;;;;5.25;2.80;;;;;;;;;;5088885;28;21326;-82
2021/06/14 10:15:14;;;;;;;4.75;2.63;;;;;;;;;;5085214;28;20427;-82
2021/06/14 10:17:42;;;;;;;6.28;2.60;;;;;;;;;;5070165;28;20380;-83
2021/06/14 10:20:28;;;;;;;5.78;2.50;;;;;;;;;;5088405;28;20477;-84
2021/06/14 10:22:56;;;;;;;5.88;2.80;;;;;;;;;;5069567;28;20395;-84
2021/06/14 10:25:22;;;;;;;7.25;2.78;;;;;;;;;;5088988;28;20372;-82
2021/06/14 10:27:48;;;;;;;6.75;2.92;;;;;;;;;;5088975;28;20445;-81
2021/06/14 10:30:16;;;;;;;7.40;2.80;;;;;;;;;;5092238;28;20787;-79
2021/06/14 10:32:43;;;;;;;6.82;3.10;;;;;;;;;;5090864;28;20380;-82
2021/06/14 10:35:11;;;;;;;7.03;3.28;;;;;;;;;;5091873;28;20387;-83
2021/06/14 10:37:47;;;;;;;4.88;2.85;;;;;;;;;;5092414;28;20442;-82
2021/06/14 10:40:14;;;;;;;5.22;2.92;;;;;;;;;;5073882;28;20463;-82
2021/06/14 10:42:41;;;;;;;5.50;2.67;;;;;;;;;;5092192;28;20364;-80
2021/06/14 10:45:10;;;;;;;7.68;2.85;;;;;;;;;;5091984;28;20375;-82
2021/06/14 10:47:36;;;;;;;11.37;3.07;;;;;;;;;;5092056;28;20940;-83
2021/06/14 10:50:03;;;;;;;9.70;3.10;;;;;;;;;;5073909;28;20407;-82
2021/06/14 10:52:39;;;;;;;5.75;2.65;;;;;;;;;;5091878;28;20451;-83
2021/06/14 10:55:10;;;;;;;8.00;3.30;;;;;;;;;;5092055;28;20518;-83
2021/06/14 10:57:36;;;;;;;5.72;2.83;;;;;;;;;;5091873;28;20862;-81
2021/06/14 11:00:03;;;;;;;8.52;3.00;;;;;;;;;;5091846;28;20376;-81
2021/06/14 11:02:29;;;;;;;10.98;3.15;;;;;;;;;;5090661;28;20368;-81
2021/06/14 11:05:05;;;;;;;7.00;3.05;;;;;;;;;;5091893;28;20899;-81
2021/06/14 11:07:31;;;;;;;7.18;2.95;;;;;;;;;;5091699;28;20361;-82
2021/06/14 11:09:57;;;;;;;22.90;4.93;;;;;;;;;;5091909;28;20456;-81
2021/06/14 11:12:25;;;;;;;8.45;2.90;;;;;;;;;;5091642;28;20854;-84
2021/06/14 11:14:51;;;;;;;7.25;2.55;;;;;;;;;;5073539;28;20708;-81
2021/06/14 11:17:22;;;;;;;6.72;2.60;;;;;;;;;;5073537;28;20376;-83
2021/06/14 11:19:50;;;;;;;6.30;2.60;;;;;;;;;;5073585;28;20368;-83
2021/06/14 11:22:17;;;;;;;5.38;2.50;;;;;;;;;;5091323;28;20877;-83
2021/06/14 11:24:44;;;;;;;5.90;2.55;;;;;;;;;;5091780;28;20451;-83
2021/06/14 11:27:11;;;;;;;5.40;2.30;;;;;;;;;;5091415;28;20455;-83
2021/06/14 11:29:51;;;;;;;5.13;2.42;;;;;;;;;;5091744;28;20371;-84
2021/06/14 11:32:19;;;;;;;5.22;2.40;;;;;;;;;;5091059;28;20396;-82
2021/06/14 11:34:47;;;;;;;5.78;1.77;;;;;;;;;;5073109;28;20935;-84
2021/06/14 11:37:13;;;;;;;4.32;1.92;;;;;;;;;;5091340;28;20451;-81
2021/06/14 11:39:39;;;;;;;3.40;1.95;;;;;;;;;;5090967;28;20369;-82
2021/06/14 11:42:13;;;;;;;7.63;2.42;;;;;;;;;;5090776;28;20471;-83
2021/06/14 11:44:49;;;;;;;4.65;1.92;;;;;;;;;;5091276;28;20417;-81
2021/06/14 11:47:17;;;;;;;5.90;2.13;;;;;;;;;;5091135;28;20462;-82
2021/06/14 11:49:44;;;;;;;4.22;1.92;;;;;;;;;;5086000;28;20405;-84
2021/06/14 11:52:31;;;;;;;4.93;1.90;;;;;;;;;;5091132;28;20863;-84
2021/06/14 11:54:58;;;;;;;3.72;1.85;;;;;;;;;;5091781;28;20406;-83
2021/06/14 11:57:32;;;;;;;4.23;2.10;;;;;;;;;;5110517;28;20400;-86
2021/06/14 11:59:58;;;;;;;4.60;2.15;;;;;;;;;;5100117;28;20380;-82
2021/06/14 12:02:25;;;;;;;4.80;2.05;;;;;;;;;;5068817;28;20439;-85
2021/06/14 12:04:52;;;;;;;5.13;1.80;;;;;;;;;;5085588;28;20374;-82
2021/06/14 12:07:34;;;;;;;5.05;1.83;;;;;;;;;;5086366;28;20377;-84
2021/06/14 12:10:08;;;;;;;3.65;1.92;;;;;;;;;;5085744;28;20364;-84
2021/06/14 12:12:35;;;;;;;2.97;1.70;;;;;;;;;;5068520;28;20392;-85
2021/06/14 12:15:01;;;;;;;4.75;1.98;;;;;;;;;;5066691;28;20886;-84
2021/06/14 12:17:30;;;;;;;3.60;1.67;;;;;;;;;;5067572;28;21113;-84
2021/06/14 12:19:57;;;;;;;5.57;1.75;;;;;;;;;;5067102;28;20383;-83
2021/06/14 12:22:24;;;;;;;3.92;2.00;;;;;;;;;;5068562;28;20385;-85
2021/06/14 12:24:50;;;;;;;4.10;2.15;;;;;;;;;;5085939;28;20368;-83
2021/06/14 12:27:18;;;;;;;3.80;1.80;;;;;;;;;;5067534;28;20400;-83
2021/06/14 12:29:44;;;;;;;4.18;1.85;;;;;;;;;;5067444;28;20412;-81
2021/06/14 12:32:10;;;;;;;3.97;1.98;;;;;;;;;;5066505;28;20758;-81
2021/06/14 12:34:37;;;;;;;19.05;3.20;;;;;;;;;;5083018;28;20440;-81
2021/06/14 12:37:08;;;;;;;9.05;1.98;;;;;;;;;;5085233;28;20886;-82
2021/06/14 12:39:34;;;;;;;5.00;2.30;;;;;;;;;;5085326;28;20372;-82
2021/06/14 12:42:00;;;;;;;2.53;1.73;;;;;;;;;;5085176;28;20387;-83
2021/06/14 12:44:26;;;;;;;3.83;1.87;;;;;;;;;;5085155;28;20451;-82
2021/06/14 12:46:53;;;;;;;4.30;1.70;;;;;;;;;;5084940;28;20365;-82
2021/06/14 12:49:28;;;;;;;3.08;1.70;;;;;;;;;;5085097;28;20430;-82
2021/06/14 12:51:54;;;;;;;4.57;1.90;;;;;;;;;;5067537;28;20739;-82
2021/06/14 12:54:20;;;;;;;3.60;1.80;;;;;;;;;;5084079;28;20404;-82
2021/06/14 12:56:57;;;;;;;4.80;1.83;;;;;;;;;;5085238;28;20432;-83
2021/06/14 12:59:24;;;;;;;4.63;2.05;;;;;;;;;;5087972;28;20471;-82
2021/06/14 13:01:50;;;;;;;5.28;2.17;;;;;;;;;;5088303;28;20778;-82
2021/06/14 13:04:16;;;;;;;6.20;2.13;;;;;;;;;;5064462;28;20408;-83
2021/06/14 13:06:42;;;;;;;7.05;2.38;;;;;;;;;;5088730;28;20797;-83
2021/06/14 13:11:52;;;;;;;3.63;1.88;;;;;;;;;;5632009;23;20438;-87
2021/06/14 13:14:25;;;;;;;11.40;2.60;;;;;;;;;;5012993;28;20411;-89
2021/06/14 13:16:54;;;;;;;4.78;1.73;;;;;;;;;;5037817;28;20409;-93
2021/06/14 13:19:24;;;;;;;3.78;2.00;;;;;;;;;;5019933;28;20383;-91
2021/06/14 13:21:50;;;;;;;8.10;2.13;;;;;;;;;;5017844;28;20385;-87
2021/06/14 13:24:17;;;;;;;4.47;2.05;;;;;;;;;;5022069;28;20382;-90
2021/06/14 13:26:47;;;;;;;9.57;2.70;;;;;;;;;;5023174;28;20372;-86
2021/06/14 13:29:25;;;;;;;4.72;2.53;;;;;;;;;;5019990;28;20397;-89
2021/06/14 13:32:20;;;;;;;6.05;2.33;;;;;;;;;;5038986;28;20373;-90
2021/06/14 13:34:53;;;;;;;5.97;2.58;;;;;;;;;;5023115;28;20399;-91
2021/06/14 13:37:21;;;;;;;4.22;2.05;;;;;;;;;;5050378;28;20371;-92
2021/06/14 13:39:47;;;;;;;4.50;2.30;;;;;;;;;;5033149;28;20384;-90
2021/06/14 13:42:14;;;;;;;5.03;2.30;;;;;;;;;;5024530;28;20397;-89
2021/06/14 13:44:50;;;;;;;4.10;2.23;;;;;;;;;;5003673;28;20454;-89
2021/06/14 13:47:23;;;;;;;5.20;2.47;;;;;;;;;;5004242;28;20382;-90
2021/06/14 13:49:53;;;;;;;5.25;2.60;;;;;;;;;;5001977;28;20872;-90
2021/06/14 13:52:22;;;;;;;5.68;2.58;;;;;;;;;;5010454;28;20404;-88
2021/06/14 13:54:58;;;;;;;7.32;3.03;;;;;;;;;;5024875;28;20411;-91
2021/06/14 13:57:25;;;;;;;5.45;2.40;;;;;;;;;;5018597;28;20377;-91
2021/06/14 14:00:02;;;;;;;6.82;2.63;;;;;;;;;;5023036;28;20878;-92
2021/06/14 14:02:28;;;;;;;5.53;2.90;;;;;;;;;;5016123;28;20393;-91
2021/06/14 14:04:54;;;;;;;5.13;2.70;;;;;;;;;;5014124;28;20469;-90
2021/06/14 14:07:22;;;;;;;5.35;2.47;;;;;;;;;;5015464;28;20446;-91
2021/06/14 14:09:49;;;;;;;5.25;2.42;;;;;;;;;;5024112;28;20958;-87
2021/06/14 14:12:15;;;;;;;5.65;2.60;;;;;;;;;;5022790;28;20398;-88
2021/06/14 14:14:41;;;;;;;4.40;2.67;;;;;;;;;;5023785;28;20430;-91
2021/06/14 14:17:08;;;;;;;6.93;2.60;;;;;;;;;;5023478;28;20402;-90
2021/06/14 14:19:35;;;;;;;16.63;4.25;;;;;;;;;;5020338;28;20385;-91
2021/06/14 14:22:04;;;;;;;3.40;2.50;;;;;;;;;;5023631;28;20448;-90
2021/06/14 14:24:31;;;;;;;5.53;3.40;;;;;;;;;;5024219;28;20407;-89
2021/06/14 14:26:57;;;;;;;5.40;2.92;;;;;;;;;;5022696;28;20378;-91
2021/06/14 14:29:25;;;;;;;7.80;3.55;;;;;;;;;;5022970;28;20419;-90
2021/06/14 14:31:52;;;;;;;7.47;3.00;;;;;;;;;;5024376;28;20380;-91
2021/06/14 14:34:20;;;;;;;7.80;3.22;;;;;;;;;;5022675;28;20543;-90
2021/06/14 14:36:51;;;;;;;8.20;3.50;;;;;;;;;;5021263;28;20763;-90
2021/06/14 14:39:18;;;;;;;7.25;3.50;;;;;;;;;;5022905;28;20854;-92
2021/06/14 14:41:45;;;;;;;5.90;2.92;;;;;;;;;;5023424;28;20379;-91
2021/06/14 14:44:18;;;;;;;8.33;3.40;;;;;;;;;;5023370;28;20469;-92
2021/06/14 14:46:45;;;;;;;10.20;3.47;;;;;;;;;;5019571;28;20393;-91
2021/06/14 14:49:13;;;;;;;7.78;3.38;;;;;;;;;;5018214;28;20382;-90
2021/06/14 14:51:45;;;;;;;8.07;3.47;;;;;;;;;;5014193;28;20751;-87